createdAt,value
2018-06-04T00:01:50.219Z,19.49
2018-06-04T00:04:17.590Z,19.47
2018-06-04T00:06:45.002Z,19.45
2018-06-04T00:09:12.284Z,19.40
2018-06-04T00:11:39.537Z,19.42
2018-06-04T00:14:06.883Z,19.37
2018-06-04T00:16:34.229Z,19.09
2018-06-04T00:19:01.575Z,19.37
2018-06-04T00:21:28.965Z,19.23
2018-06-04T00:23:56.260Z,19.28
2018-06-04T00:26:23.651Z,19.26
2018-06-04T00:28:51.289Z,19.26
2018-06-04T00:31:20.220Z,19.31
2018-06-04T00:33:47.567Z,19.29
2018-06-04T00:36:14.953Z,19.29
2018-06-04T00:38:42.202Z,19.27
2018-06-04T00:41:10.205Z,19.26
2018-06-04T00:43:37.395Z,19.20
2018-06-04T00:46:04.872Z,19.18
2018-06-04T00:48:32.213Z,19.19
2018-06-04T00:50:59.612Z,19.08
2018-06-04T00:53:26.963Z,19.06
2018-06-04T00:56:06.012Z,19.12
2018-06-04T00:58:33.396Z,19.15
2018-06-04T01:01:00.700Z,19.11
2018-06-04T01:03:28.006Z,19.02
2018-06-04T01:05:55.280Z,19.05
2018-06-04T01:08:22.596Z,19.06
2018-06-04T01:10:49.826Z,19.05
2018-06-04T01:13:17.190Z,19.02
2018-06-04T01:15:44.578Z,18.99
2018-06-04T01:18:11.862Z,18.93
2018-06-04T01:20:39.176Z,18.58
2018-06-04T01:23:06.675Z,18.79
2018-06-04T01:25:34.077Z,18.76
2018-06-04T01:28:01.354Z,18.75
2018-06-04T01:30:28.642Z,18.75
2018-06-04T01:32:55.944Z,18.63
2018-06-04T01:35:23.340Z,18.64
2018-06-04T01:37:50.665Z,18.66
2018-06-04T01:40:17.989Z,18.63
2018-06-04T01:42:45.290Z,18.59
2018-06-04T01:45:12.720Z,18.54
2018-06-04T01:49:59.692Z,18.51
2018-06-04T01:52:27.019Z,18.55
2018-06-04T01:54:54.409Z,18.59
2018-06-04T01:57:21.796Z,18.63
2018-06-04T01:59:49.138Z,18.55
2018-06-04T02:02:16.489Z,18.51
2018-06-04T02:04:43.869Z,18.44
2018-06-04T02:07:11.198Z,18.38
2018-06-04T02:09:39.241Z,18.22
2018-06-04T02:12:06.510Z,18.16
2018-06-04T02:14:33.846Z,18.14
2018-06-04T02:17:01.199Z,18.09
2018-06-04T02:19:28.555Z,18.15
2018-06-04T02:21:55.830Z,18.18
2018-06-04T02:24:23.234Z,18.25
2018-06-04T02:26:50.597Z,18.18
2018-06-04T02:29:17.868Z,18.15
2018-06-04T02:31:45.114Z,18.18
2018-06-04T02:34:12.401Z,18.21
2018-06-04T02:36:39.738Z,18.11
2018-06-04T02:39:07.403Z,18.07
2018-06-04T02:41:34.656Z,18.12
2018-06-04T02:44:01.952Z,17.91
2018-06-04T02:46:29.325Z,18.14
2018-06-04T02:48:56.622Z,18.10
2018-06-04T02:51:23.949Z,18.07
2018-06-04T02:53:51.231Z,18.08
2018-06-04T02:56:18.619Z,18.11
2018-06-04T02:58:45.962Z,18.05
2018-06-04T03:01:13.222Z,18.03
2018-06-04T03:03:40.551Z,17.99
2018-06-04T03:06:07.897Z,18.05
2018-06-04T03:08:35.169Z,18.09
2018-06-04T03:11:02.506Z,18.03
2018-06-04T03:13:29.898Z,17.98
2018-06-04T03:15:57.172Z,18.03
2018-06-04T03:18:24.503Z,17.96
2018-06-04T03:20:51.791Z,17.91
2018-06-04T03:23:19.143Z,17.85
2018-06-04T03:25:46.479Z,17.83
2018-06-04T03:28:13.744Z,17.80
2018-06-04T03:30:41.126Z,17.83
2018-06-04T03:33:08.474Z,17.80
2018-06-04T03:35:35.841Z,17.79
2018-06-04T03:40:55.976Z,17.93
2018-06-04T03:43:23.265Z,17.86
2018-06-04T03:45:50.497Z,17.87
2018-06-04T03:48:18.665Z,17.92
2018-06-04T03:50:45.952Z,17.91
2018-06-04T03:53:13.275Z,17.93
2018-06-04T03:55:40.499Z,17.96
2018-06-04T03:58:07.817Z,17.95
2018-06-04T04:00:35.081Z,18.02
2018-06-04T04:03:02.397Z,18.00
2018-06-04T04:05:29.818Z,17.98
2018-06-04T04:07:57.343Z,17.96
2018-06-04T04:10:24.659Z,18.01
2018-06-04T04:12:52.036Z,17.95
2018-06-04T04:15:19.338Z,18.01
2018-06-04T04:17:46.702Z,18.01
2018-06-04T04:20:13.995Z,18.01
2018-06-04T04:23:04.243Z,18.13
2018-06-04T04:25:31.583Z,18.22
2018-06-04T04:27:58.905Z,17.94
2018-06-04T04:30:26.224Z,17.78
2018-06-04T04:32:53.543Z,17.76
2018-06-04T04:35:20.870Z,17.85
2018-06-04T04:37:48.281Z,17.97
2018-06-04T04:40:15.579Z,18.10
2018-06-04T04:42:42.892Z,18.25
2018-06-04T04:45:10.189Z,18.30
2018-06-04T04:47:37.470Z,18.41
2018-06-04T04:50:04.788Z,18.46
2018-06-04T04:52:32.704Z,18.52
2018-06-04T04:55:00.067Z,18.46
2018-06-04T04:57:27.369Z,18.51
2018-06-04T04:59:54.776Z,18.62
2018-06-04T05:02:22.142Z,18.65
2018-06-04T05:04:49.470Z,18.74
2018-06-04T05:08:18.755Z,18.91
2018-06-04T05:10:46.006Z,19.05
2018-06-04T05:13:13.280Z,19.25
2018-06-04T05:15:40.633Z,19.31
2018-06-04T05:18:07.912Z,19.36
2018-06-04T05:20:35.254Z,19.44
2018-06-04T05:23:02.510Z,19.47
2018-06-04T05:25:29.946Z,19.58
2018-06-04T05:27:57.315Z,19.71
2018-06-04T05:30:24.581Z,19.76
2018-06-04T05:32:51.894Z,19.87
2018-06-04T05:35:19.186Z,19.98
2018-06-04T05:37:46.511Z,19.92
2018-06-04T05:40:13.836Z,20.12
2018-06-04T05:42:41.060Z,20.29
2018-06-04T05:45:08.321Z,20.41
2018-06-04T05:47:35.657Z,20.71
2018-06-04T05:50:03.151Z,20.74
2018-06-04T05:52:30.430Z,20.91
2018-06-04T05:54:57.780Z,21.16
2018-06-04T05:57:25.085Z,21.14
2018-06-04T05:59:52.361Z,21.25
2018-06-04T06:02:19.705Z,21.35
2018-06-04T06:04:47.045Z,21.29
2018-06-04T06:07:14.472Z,21.26
2018-06-04T06:09:41.779Z,21.44
2018-06-04T06:12:09.144Z,21.63
2018-06-04T06:14:36.445Z,21.89
2018-06-04T06:17:03.681Z,22.28
2018-06-04T06:19:30.982Z,22.54
2018-06-04T06:21:58.220Z,22.72
2018-06-04T06:24:25.513Z,22.67
2018-06-04T06:26:52.883Z,22.67
2018-06-04T06:29:20.187Z,22.87
2018-06-04T06:31:47.543Z,22.83
2018-06-04T06:34:14.780Z,22.87
2018-06-04T06:36:42.141Z,22.95
2018-06-04T06:39:09.463Z,22.94
2018-06-04T06:41:37.053Z,23.14
2018-06-04T06:44:04.420Z,23.17
2018-06-04T06:46:31.642Z,23.35
2018-06-04T06:48:58.970Z,23.34
2018-06-04T06:51:26.340Z,23.45
2018-06-04T06:53:53.726Z,23.65
2018-06-04T06:56:20.954Z,23.92
2018-06-04T06:58:48.342Z,24.11
2018-06-04T07:01:15.786Z,24.21
2018-06-04T07:03:43.120Z,24.33
2018-06-04T07:06:10.416Z,24.53
2018-06-04T07:08:37.780Z,24.79
2018-06-04T07:11:05.173Z,24.74
2018-06-04T07:13:32.431Z,24.81
2018-06-04T07:15:59.783Z,24.94
2018-06-04T07:18:27.036Z,25.09
2018-06-04T07:20:54.278Z,25.07
2018-06-04T07:23:21.643Z,25.26
2018-06-04T07:25:48.853Z,25.47
2018-06-04T07:28:16.261Z,25.70
2018-06-04T07:30:43.815Z,25.74
2018-06-04T07:33:11.221Z,25.87
2018-06-04T07:35:39.009Z,25.99
2018-06-04T07:38:06.290Z,26.14
2018-06-04T07:40:33.610Z,26.20
2018-06-04T07:43:00.899Z,26.25
2018-06-04T07:45:28.251Z,25.82
2018-06-04T07:47:55.610Z,25.92
2018-06-04T07:50:22.909Z,26.09
2018-06-04T07:52:50.230Z,26.23
2018-06-04T07:55:17.604Z,26.32
2018-06-04T07:57:44.931Z,26.51
2018-06-04T08:00:12.255Z,26.47
2018-06-04T08:02:39.579Z,26.81
2018-06-04T08:05:06.809Z,27.00
2018-06-04T08:07:34.134Z,27.14
2018-06-04T08:10:01.585Z,27.31
2018-06-04T08:12:28.877Z,27.46
2018-06-04T08:15:05.980Z,27.34
2018-06-04T08:17:33.257Z,27.50
2018-06-04T08:20:00.550Z,27.60
2018-06-04T08:22:27.933Z,27.72
2018-06-04T08:24:55.184Z,27.92
2018-06-04T08:27:22.513Z,27.84
2018-06-04T08:29:49.835Z,28.03
2018-06-04T08:32:17.068Z,28.03
2018-06-04T08:34:44.356Z,28.19
2018-06-04T08:37:11.656Z,28.26
2018-06-04T08:39:39.009Z,28.29
2018-06-04T08:42:06.290Z,27.55
2018-06-04T08:44:33.589Z,27.50
2018-06-04T08:47:00.932Z,27.76
2018-06-04T08:49:28.247Z,28.20
2018-06-04T08:51:55.642Z,28.32
2018-06-04T08:54:22.939Z,27.76
2018-06-04T08:56:50.150Z,28.06
2018-06-04T08:59:17.683Z,28.39
2018-06-04T09:01:45.585Z,28.61
2018-06-04T09:04:12.981Z,28.66
2018-06-04T09:06:40.383Z,28.79
2018-06-04T09:09:07.772Z,28.89
2018-06-04T09:11:35.056Z,28.70
2018-06-04T09:14:02.445Z,28.68
2018-06-04T09:16:29.688Z,28.74
2018-06-04T09:18:57.021Z,29.12
2018-06-04T09:21:24.306Z,29.50
2018-06-04T09:23:51.606Z,29.63
2018-06-04T09:26:19.147Z,29.24
2018-06-04T09:28:46.368Z,28.91
2018-06-04T09:31:13.663Z,28.85
2018-06-04T09:33:41.001Z,29.06
2018-06-04T09:36:08.244Z,28.96
2018-06-04T09:38:35.598Z,28.63
2018-06-04T09:41:02.900Z,29.00
2018-06-04T09:43:30.280Z,29.36
2018-06-04T09:45:57.593Z,29.41
2018-06-04T09:48:24.867Z,29.61
2018-06-04T09:50:52.170Z,30.07
2018-06-04T09:53:19.444Z,30.49
2018-06-04T09:55:46.822Z,30.76
2018-06-04T09:58:14.054Z,30.87
2018-06-04T10:00:41.464Z,30.45
2018-06-04T10:03:08.782Z,30.56
2018-06-04T10:05:36.145Z,30.95
2018-06-04T10:08:03.479Z,30.18
2018-06-04T10:10:30.783Z,29.51
2018-06-04T10:12:58.092Z,29.81
2018-06-04T10:15:25.498Z,30.35
2018-06-04T10:17:52.863Z,30.76
2018-06-04T10:20:20.294Z,30.63
2018-06-04T10:22:47.595Z,30.86
2018-06-04T10:25:14.938Z,30.46
2018-06-04T10:27:42.185Z,29.34
2018-06-04T10:30:09.717Z,29.14
2018-06-04T10:32:37.147Z,29.11
2018-06-04T10:35:04.512Z,29.38
2018-06-04T10:37:31.888Z,28.54
2018-06-04T10:39:59.240Z,29.13
2018-06-04T10:42:26.591Z,30.01
2018-06-04T10:44:54.005Z,30.44
2018-06-04T10:47:21.268Z,30.47
2018-06-04T10:49:48.620Z,30.75
2018-06-04T10:52:15.922Z,31.53
2018-06-04T10:54:43.377Z,31.21
2018-06-04T10:57:10.735Z,31.43
2018-06-04T10:59:38.070Z,31.72
2018-06-04T11:02:05.447Z,32.22
2018-06-04T11:04:32.729Z,32.25
2018-06-04T11:07:00.122Z,31.42
2018-06-04T11:09:27.495Z,31.85
2018-06-04T11:11:54.709Z,32.13
2018-06-04T11:14:22.001Z,32.35
2018-06-04T11:16:49.274Z,32.69
2018-06-04T11:19:16.648Z,32.45
2018-06-04T11:21:43.979Z,32.46
2018-06-04T11:24:11.505Z,32.84
2018-06-04T11:26:38.821Z,32.52
2018-06-04T11:29:06.122Z,32.24
2018-06-04T11:31:33.461Z,32.74
2018-06-04T11:34:00.772Z,33.10
2018-06-04T11:36:28.181Z,33.43
2018-06-04T11:38:55.502Z,33.23
2018-06-04T11:41:22.831Z,33.17
2018-06-04T11:43:50.242Z,32.68
2018-06-04T11:46:17.508Z,32.73
2018-06-04T11:48:44.801Z,32.64
2018-06-04T11:51:12.172Z,32.52
2018-06-04T11:53:39.536Z,32.69
2018-06-04T11:56:06.814Z,32.91
2018-06-04T11:58:34.134Z,32.93
2018-06-04T12:01:01.453Z,33.23
2018-06-04T12:03:28.732Z,33.53
2018-06-04T12:05:56.027Z,33.71
2018-06-04T12:08:23.461Z,33.88
2018-06-04T12:10:50.736Z,33.80
2018-06-04T12:13:18.052Z,33.73
2018-06-04T12:15:45.372Z,34.06
2018-06-04T12:18:12.719Z,34.41
2018-06-04T12:20:40.013Z,34.36
2018-06-04T12:23:07.429Z,34.67
2018-06-04T12:25:34.765Z,34.78
2018-06-04T12:28:02.138Z,34.46
2018-06-04T12:30:29.486Z,34.62
2018-06-04T12:32:56.817Z,34.45
2018-06-04T12:35:24.106Z,34.53
2018-06-04T12:37:51.415Z,34.77
2018-06-04T12:40:18.674Z,34.69
2018-06-04T12:42:46.036Z,34.85
2018-06-04T12:45:13.392Z,35.10
2018-06-04T12:47:40.642Z,35.12
2018-06-04T12:50:07.944Z,35.22
2018-06-04T12:52:35.247Z,35.13
2018-06-04T12:55:02.548Z,34.71
2018-06-04T12:57:29.925Z,34.91
2018-06-04T12:59:57.295Z,35.36
2018-06-04T13:02:24.577Z,35.28
2018-06-04T13:04:51.959Z,35.46
2018-06-04T13:07:19.265Z,35.53
2018-06-04T13:09:46.596Z,35.63
2018-06-04T13:12:14.001Z,35.83
2018-06-04T13:14:41.502Z,36.02
2018-06-04T13:17:08.822Z,35.98
2018-06-04T13:19:36.104Z,36.12
2018-06-04T13:22:03.428Z,36.28
2018-06-04T13:24:30.812Z,36.09
2018-06-04T13:26:58.180Z,36.19
2018-06-04T13:29:25.610Z,36.17
2018-06-04T13:31:52.886Z,36.06
2018-06-04T13:34:20.227Z,36.09
2018-06-04T13:36:47.629Z,35.94
2018-06-04T13:39:14.987Z,35.85
2018-06-04T13:41:42.300Z,35.82
2018-06-04T13:44:09.665Z,35.83
2018-06-04T13:46:37.005Z,35.63
2018-06-04T13:49:04.388Z,35.55
2018-06-04T13:51:31.871Z,35.10
2018-06-04T13:53:59.203Z,34.88
2018-06-04T13:56:26.523Z,35.01
2018-06-04T13:58:53.769Z,34.99
2018-06-04T14:01:21.079Z,35.05
2018-06-04T14:03:48.446Z,35.27
2018-06-04T14:06:15.748Z,35.39
2018-06-04T14:08:43.047Z,35.52
2018-06-04T14:11:10.367Z,35.42
2018-06-04T14:13:37.603Z,35.28
2018-06-04T14:16:05.047Z,35.28
2018-06-04T14:18:32.488Z,35.36
2018-06-04T14:20:59.842Z,35.68
2018-06-04T14:23:27.251Z,35.69
2018-06-04T14:25:54.573Z,35.35
2018-06-04T14:28:21.887Z,35.38
2018-06-04T14:30:49.189Z,35.11
2018-06-04T14:33:16.481Z,35.21
2018-06-04T14:35:43.790Z,34.99
2018-06-04T14:38:11.013Z,35.11
2018-06-04T14:40:38.451Z,35.26
2018-06-04T14:44:08.499Z,34.98
2018-06-04T14:46:35.745Z,34.85
2018-06-04T14:49:03.055Z,34.16
2018-06-04T14:51:30.417Z,33.79
2018-06-04T14:53:57.745Z,33.89
2018-06-04T14:56:25.004Z,34.16
2018-06-04T14:58:52.336Z,34.05
2018-06-04T15:01:19.674Z,34.06
2018-06-04T15:03:47.045Z,34.18
2018-06-04T15:06:14.327Z,34.32
2018-06-04T15:08:41.691Z,34.26
2018-06-04T15:11:08.953Z,34.10
2018-06-04T15:13:36.198Z,34.45
2018-06-04T15:16:03.560Z,34.60
2018-06-04T15:18:30.852Z,34.64
2018-06-04T15:20:58.206Z,34.49
2018-06-04T15:23:25.591Z,34.08
2018-06-04T15:25:52.968Z,34.22
2018-06-04T15:28:20.383Z,34.00
2018-06-04T15:30:47.718Z,33.62
2018-06-04T15:33:15.086Z,33.50
2018-06-04T15:35:42.363Z,33.59
2018-06-04T15:38:09.765Z,33.67
2018-06-04T15:40:37.161Z,33.95
2018-06-04T15:43:04.576Z,33.94
2018-06-04T15:45:31.793Z,33.71
2018-06-04T15:47:59.107Z,33.67
2018-06-04T15:50:26.304Z,33.75
2018-06-04T15:52:53.574Z,33.78
2018-06-04T15:55:20.935Z,33.69
2018-06-04T15:57:48.288Z,33.43
2018-06-04T16:00:15.604Z,33.34
2018-06-04T16:02:42.924Z,33.31
2018-06-04T16:05:10.236Z,33.11
2018-06-04T16:07:37.641Z,32.80
2018-06-04T16:10:04.985Z,32.91
2018-06-04T16:12:32.318Z,32.84
2018-06-04T16:15:02.923Z,32.62
2018-06-04T16:17:30.224Z,32.60
2018-06-04T16:19:57.629Z,32.43
2018-06-04T16:22:24.918Z,32.34
2018-06-04T16:24:52.216Z,32.29
2018-06-04T16:27:19.626Z,32.15
2018-06-04T16:29:46.970Z,32.01
2018-06-04T16:32:14.425Z,32.06
2018-06-04T16:34:41.772Z,32.04
2018-06-04T16:37:09.075Z,32.05
2018-06-04T16:39:36.416Z,31.81
2018-06-04T16:42:03.728Z,31.46
2018-06-04T16:44:31.066Z,31.33
2018-06-04T16:46:58.374Z,31.52
2018-06-04T16:49:25.679Z,31.44
2018-06-04T16:51:53.040Z,31.14
2018-06-04T16:54:20.416Z,31.10
2018-06-04T16:56:47.699Z,31.15
2018-06-04T16:59:15.022Z,31.08
2018-06-04T17:01:42.358Z,30.88
2018-06-04T17:04:09.659Z,30.89
2018-06-04T17:06:36.969Z,30.76
2018-06-04T17:09:06.115Z,30.55
2018-06-04T17:11:33.330Z,30.43
2018-06-04T17:14:00.620Z,30.33
2018-06-04T17:16:27.879Z,30.19
2018-06-04T17:18:55.234Z,30.14
2018-06-04T17:21:23.154Z,30.08
2018-06-04T17:23:50.391Z,30.13
2018-06-04T17:26:17.649Z,30.12
2018-06-04T17:28:44.939Z,30.02
2018-06-04T17:31:12.244Z,29.68
2018-06-04T17:33:39.697Z,29.81
2018-06-04T17:36:06.980Z,29.74
2018-06-04T17:38:34.243Z,29.77
2018-06-04T17:41:01.616Z,29.59
2018-06-04T17:43:28.922Z,29.47
2018-06-04T17:45:56.822Z,29.37
2018-06-04T17:48:24.138Z,29.23
2018-06-04T17:50:51.511Z,29.16
2018-06-04T17:53:18.794Z,29.01
2018-06-04T17:55:46.066Z,29.01
2018-06-04T17:58:13.390Z,28.89
2018-06-04T18:00:40.760Z,28.79
2018-06-04T18:03:08.135Z,28.73
2018-06-04T18:05:35.357Z,28.58
2018-06-04T18:08:02.734Z,28.55
2018-06-04T18:10:30.000Z,28.47
2018-06-04T18:12:57.273Z,28.39
2018-06-04T18:15:24.533Z,28.27
2018-06-04T18:17:51.831Z,28.25
2018-06-04T18:20:19.111Z,28.21
2018-06-04T18:22:46.390Z,28.09
2018-06-04T18:25:13.602Z,27.97
2018-06-04T18:27:41.065Z,27.96
2018-06-04T18:30:08.408Z,27.89
2018-06-04T18:32:35.635Z,27.82
2018-06-04T18:35:02.964Z,27.68
2018-06-04T18:37:30.312Z,27.56
2018-06-04T18:39:57.796Z,27.47
2018-06-04T18:42:25.126Z,27.39
2018-06-04T18:44:52.492Z,27.29
2018-06-04T18:47:19.756Z,27.19
2018-06-04T18:49:47.005Z,27.03
2018-06-04T18:52:14.313Z,27.05
2018-06-04T18:54:41.710Z,26.89
2018-06-04T18:57:08.986Z,26.81
2018-06-04T18:59:36.413Z,26.68
2018-06-04T19:02:03.789Z,26.63
2018-06-04T19:04:31.128Z,26.52
2018-06-04T19:06:58.447Z,26.33
2018-06-04T19:09:25.762Z,26.21
2018-06-04T19:11:53.178Z,26.07
2018-06-04T19:14:20.684Z,25.96
2018-06-04T19:16:48.014Z,25.78
2018-06-04T19:19:15.275Z,25.68
2018-06-04T19:21:42.643Z,25.59
2018-06-04T19:24:10.448Z,25.51
2018-06-04T19:26:37.766Z,25.46
2018-06-04T19:29:05.200Z,25.37
2018-06-04T19:31:32.416Z,25.32
2018-06-04T19:34:00.287Z,25.24
2018-06-04T19:36:27.607Z,25.17
2018-06-04T19:38:54.875Z,25.11
2018-06-04T19:41:22.242Z,25.04
2018-06-04T19:43:49.662Z,24.86
2018-06-04T19:46:16.980Z,24.82
2018-06-04T19:48:44.299Z,24.71
2018-06-04T19:51:11.699Z,24.66
2018-06-04T19:53:39.736Z,24.54
2018-06-04T19:56:07.096Z,24.47
2018-06-04T19:58:34.470Z,24.42
2018-06-04T20:01:01.838Z,24.29
2018-06-04T20:03:29.223Z,24.25
2018-06-04T20:05:56.606Z,24.24
2018-06-04T20:08:23.895Z,24.18
2018-06-04T20:10:51.372Z,24.19
2018-06-04T20:13:18.720Z,24.14
2018-06-04T20:15:46.004Z,24.14
2018-06-04T20:18:13.361Z,24.09
2018-06-04T20:20:40.745Z,23.99
2018-06-04T20:23:08.142Z,24.00
2018-06-04T20:25:35.499Z,23.91
2018-06-04T20:28:02.808Z,23.84
2018-06-04T20:30:30.137Z,23.79
2018-06-04T20:32:57.436Z,23.72
2018-06-04T20:35:24.814Z,23.63
2018-06-04T20:40:45.064Z,23.61
2018-06-04T20:46:05.228Z,23.60
2018-06-04T20:48:33.733Z,23.52
2018-06-04T20:51:19.680Z,23.58
2018-06-04T20:53:47.245Z,23.60
2018-06-04T20:59:07.372Z,23.55
2018-06-04T21:01:34.688Z,23.58
2018-06-04T21:04:01.982Z,23.48
2018-06-04T21:06:29.391Z,23.39
2018-06-04T21:08:56.770Z,23.25
2018-06-04T21:11:24.086Z,23.07
2018-06-04T21:13:51.462Z,22.85
2018-06-04T21:16:18.846Z,22.88
2018-06-04T21:18:46.211Z,22.80
2018-06-04T21:21:13.565Z,22.69
2018-06-04T21:23:40.942Z,22.69
2018-06-04T21:26:08.204Z,22.69
2018-06-04T21:28:35.487Z,22.49
2018-06-04T21:31:02.908Z,22.47
2018-06-04T21:33:30.215Z,22.35
2018-06-04T21:35:57.632Z,22.44
2018-06-04T21:38:24.976Z,22.37
2018-06-04T21:40:52.274Z,22.29
2018-06-04T21:43:19.586Z,22.23
2018-06-04T21:45:46.883Z,22.16
2018-06-04T21:48:14.284Z,22.14
2018-06-04T21:50:41.659Z,22.08
2018-06-04T21:53:08.940Z,22.05
2018-06-04T21:55:50.171Z,22.12
2018-06-04T21:58:17.483Z,22.16
2018-06-04T22:00:44.906Z,22.12
2018-06-04T22:03:12.249Z,22.17
2018-06-04T22:05:39.749Z,22.13
2018-06-04T22:08:07.147Z,22.06
2018-06-04T22:10:34.511Z,22.05
2018-06-04T22:13:01.748Z,22.17
2018-06-04T22:15:29.101Z,22.16
2018-06-04T22:17:56.424Z,22.14
2018-06-04T22:20:23.720Z,22.12
2018-06-04T22:22:51.073Z,21.95
2018-06-04T22:25:18.459Z,21.86
2018-06-04T22:27:45.838Z,21.87
2018-06-04T22:30:13.110Z,21.81
2018-06-04T22:32:40.507Z,21.77
2018-06-04T22:35:07.826Z,21.75
2018-06-04T22:37:35.183Z,21.75
2018-06-04T22:40:02.532Z,21.68
2018-06-04T22:42:29.834Z,21.72
2018-06-04T22:44:57.114Z,21.74
2018-06-04T22:47:24.374Z,21.62
2018-06-04T22:49:51.704Z,21.59
2018-06-04T22:52:19.074Z,21.58
2018-06-04T22:54:46.480Z,21.55
2018-06-04T22:57:13.943Z,21.54
2018-06-04T22:59:41.262Z,21.56
2018-06-04T23:02:08.605Z,21.46
2018-06-04T23:04:35.972Z,21.42
2018-06-04T23:07:03.260Z,21.45
2018-06-04T23:09:30.641Z,21.46
2018-06-04T23:11:57.931Z,21.37
2018-06-04T23:14:25.278Z,21.30
2018-06-04T23:16:52.650Z,21.23
2018-06-04T23:19:20.108Z,21.22
2018-06-04T23:21:47.483Z,21.13
2018-06-04T23:24:14.789Z,21.15
2018-06-04T23:26:42.010Z,21.12
2018-06-04T23:29:09.339Z,21.12
2018-06-04T23:31:36.731Z,21.06
2018-06-04T23:34:04.041Z,21.04
2018-06-04T23:36:48.062Z,20.26
2018-06-04T23:39:15.352Z,20.95
2018-06-04T23:41:42.782Z,20.92
2018-06-04T23:44:10.047Z,20.77
2018-06-04T23:46:37.439Z,20.77
2018-06-04T23:49:04.724Z,20.77
2018-06-04T23:51:32.030Z,20.75
2018-06-04T23:53:59.381Z,20.38
2018-06-04T23:56:26.743Z,20.54
2018-06-04T23:58:54.066Z,20.47
